sensor_id;sensor_type;location;lat;lon;timestamp;P1;durP1;ratioP1;P2;durP2;ratioP2
15246;SDS011;7726;48.820;9.248;2023-01-28T00:00:19;5.43;;;4.07;;
15246;SDS011;7726;48.820;9.248;2023-01-28T00:02:46;5.07;;;4.03;;
15246;SDS011;7726;48.820;9.248;2023-01-28T00:05:14;5.00;;;4.27;;
15246;SDS011;7726;48.820;9.248;2023-01-28T00:07:42;5.40;;;4.10;;
15246;SDS011;7726;48.820;9.248;2023-01-28T00:10:10;5.00;;;4.07;;
15246;SDS011;7726;48.820;9.248;2023-01-28T00:12:37;4.63;;;3.77;;
15246;SDS011;7726;48.820;9.248;2023-01-28T00:15:05;5.67;;;4.40;;
15246;SDS011;7726;48.820;9.248;2023-01-28T00:17:32;5.37;;;4.30;;
15246;SDS011;7726;48.820;9.248;2023-01-28T00:20:01;5.93;;;4.17;;
15246;SDS011;7726;48.820;9.248;2023-01-28T00:22:28;5.87;;;4.27;;
15246;SDS011;7726;48.820;9.248;2023-01-28T00:24:55;5.63;;;4.60;;
15246;SDS011;7726;48.820;9.248;2023-01-28T00:27:24;6.17;;;4.60;;
15246;SDS011;7726;48.820;9.248;2023-01-28T00:29:51;5.80;;;4.50;;
15246;SDS011;7726;48.820;9.248;2023-01-28T00:32:19;4.50;;;4.00;;
15246;SDS011;7726;48.820;9.248;2023-01-28T00:34:46;6.10;;;4.30;;
15246;SDS011;7726;48.820;9.248;2023-01-28T00:37:14;5.17;;;4.23;;
15246;SDS011;7726;48.820;9.248;2023-01-28T00:39:41;4.63;;;4.00;;
15246;SDS011;7726;48.820;9.248;2023-01-28T00:42:08;5.00;;;4.43;;
15246;SDS011;7726;48.820;9.248;2023-01-28T00:44:36;5.10;;;4.23;;
15246;SDS011;7726;48.820;9.248;2023-01-28T00:47:03;5.03;;;4.03;;
15246;SDS011;7726;48.820;9.248;2023-01-28T00:49:30;5.80;;;4.70;;
15246;SDS011;7726;48.820;9.248;2023-01-28T00:51:57;5.57;;;4.30;;
15246;SDS011;7726;48.820;9.248;2023-01-28T00:54:25;7.37;;;4.80;;
15246;SDS011;7726;48.820;9.248;2023-01-28T00:56:52;6.30;;;4.50;;
15246;SDS011;7726;48.820;9.248;2023-01-28T00:59:19;6.70;;;3.90;;
15246;SDS011;7726;48.820;9.248;2023-01-28T01:01:47;5.43;;;4.43;;
15246;SDS011;7726;48.820;9.248;2023-01-28T01:04:14;5.20;;;4.50;;
15246;SDS011;7726;48.820;9.248;2023-01-28T01:06:50;5.60;;;4.37;;
15246;SDS011;7726;48.820;9.248;2023-01-28T01:09:18;5.50;;;4.30;;
15246;SDS011;7726;48.820;9.248;2023-01-28T01:11:46;5.00;;;4.07;;
15246;SDS011;7726;48.820;9.248;2023-01-28T01:14:14;4.53;;;3.93;;
15246;SDS011;7726;48.820;9.248;2023-01-28T01:16:41;5.53;;;4.40;;
15246;SDS011;7726;48.820;9.248;2023-01-28T01:19:09;5.30;;;4.47;;
15246;SDS011;7726;48.820;9.248;2023-01-28T01:21:36;5.53;;;4.00;;
15246;SDS011;7726;48.820;9.248;2023-01-28T01:24:03;4.77;;;3.73;;
15246;SDS011;7726;48.820;9.248;2023-01-28T01:26:30;4.80;;;3.83;;
15246;SDS011;7726;48.820;9.248;2023-01-28T01:28:58;4.80;;;4.03;;
15246;SDS011;7726;48.820;9.248;2023-01-28T01:31:25;5.30;;;4.00;;
15246;SDS011;7726;48.820;9.248;2023-01-28T01:33:52;5.00;;;4.03;;
15246;SDS011;7726;48.820;9.248;2023-01-28T01:36:20;4.77;;;3.23;;
15246;SDS011;7726;48.820;9.248;2023-01-28T01:38:47;4.83;;;3.93;;
15246;SDS011;7726;48.820;9.248;2023-01-28T01:41:21;4.47;;;3.70;;
15246;SDS011;7726;48.820;9.248;2023-01-28T01:43:50;6.20;;;4.10;;
15246;SDS011;7726;48.820;9.248;2023-01-28T01:46:18;3.27;;;2.60;;
15246;SDS011;7726;48.820;9.248;2023-01-28T01:48:46;3.80;;;3.37;;
15246;SDS011;7726;48.820;9.248;2023-01-28T01:51:14;4.87;;;3.63;;
15246;SDS011;7726;48.820;9.248;2023-01-28T01:53:44;4.20;;;3.70;;
15246;SDS011;7726;48.820;9.248;2023-01-28T01:56:13;5.20;;;3.50;;
15246;SDS011;7726;48.820;9.248;2023-01-28T01:58:41;4.63;;;3.37;;
15246;SDS011;7726;48.820;9.248;2023-01-28T02:01:09;4.20;;;3.40;;
15246;SDS011;7726;48.820;9.248;2023-01-28T02:03:50;3.47;;;2.80;;
15246;SDS011;7726;48.820;9.248;2023-01-28T02:06:19;3.80;;;3.00;;
15246;SDS011;7726;48.820;9.248;2023-01-28T02:08:47;3.37;;;2.90;;
15246;SDS011;7726;48.820;9.248;2023-01-28T02:11:14;4.13;;;3.30;;
15246;SDS011;7726;48.820;9.248;2023-01-28T02:13:44;3.20;;;2.90;;
15246;SDS011;7726;48.820;9.248;2023-01-28T02:16:12;4.90;;;3.07;;
15246;SDS011;7726;48.820;9.248;2023-01-28T02:18:39;3.53;;;3.00;;
15246;SDS011;7726;48.820;9.248;2023-01-28T02:21:12;3.60;;;3.17;;
15246;SDS011;7726;48.820;9.248;2023-01-28T02:23:45;3.13;;;2.83;;
15246;SDS011;7726;48.820;9.248;2023-01-28T02:26:33;3.20;;;2.63;;
15246;SDS011;7726;48.820;9.248;2023-01-28T02:29:08;3.47;;;2.97;;
15246;SDS011;7726;48.820;9.248;2023-01-28T02:31:38;3.93;;;3.33;;
15246;SDS011;7726;48.820;9.248;2023-01-28T02:34:08;3.57;;;3.20;;
15246;SDS011;7726;48.820;9.248;2023-01-28T02:36:39;3.17;;;2.77;;
15246;SDS011;7726;48.820;9.248;2023-01-28T02:39:08;3.67;;;3.10;;
15246;SDS011;7726;48.820;9.248;2023-01-28T02:41:39;3.33;;;2.90;;
15246;SDS011;7726;48.820;9.248;2023-01-28T02:44:10;3.30;;;2.90;;
15246;SDS011;7726;48.820;9.248;2023-01-28T02:46:37;3.03;;;2.73;;
15246;SDS011;7726;48.820;9.248;2023-01-28T02:49:23;3.13;;;2.77;;
15246;SDS011;7726;48.820;9.248;2023-01-28T02:51:54;3.30;;;3.00;;
15246;SDS011;7726;48.820;9.248;2023-01-28T02:54:33;3.53;;;2.90;;
15246;SDS011;7726;48.820;9.248;2023-01-28T02:57:05;4.53;;;2.80;;
15246;SDS011;7726;48.820;9.248;2023-01-28T02:59:38;3.73;;;2.83;;
15246;SDS011;7726;48.820;9.248;2023-01-28T03:02:09;3.37;;;3.07;;
15246;SDS011;7726;48.820;9.248;2023-01-28T03:04:39;3.97;;;3.07;;
15246;SDS011;7726;48.820;9.248;2023-01-28T03:07:08;3.80;;;3.07;;
15246;SDS011;7726;48.820;9.248;2023-01-28T03:09:36;4.57;;;3.07;;
15246;SDS011;7726;48.820;9.248;2023-01-28T03:12:04;3.23;;;2.83;;
15246;SDS011;7726;48.820;9.248;2023-01-28T03:14:54;3.30;;;3.00;;
15246;SDS011;7726;48.820;9.248;2023-01-28T03:17:40;3.73;;;2.67;;
15246;SDS011;7726;48.820;9.248;2023-01-28T03:20:28;3.37;;;3.07;;
15246;SDS011;7726;48.820;9.248;2023-01-28T03:23:16;3.03;;;2.73;;
15246;SDS011;7726;48.820;9.248;2023-01-28T03:26:03;3.50;;;2.93;;
15246;SDS011;7726;48.820;9.248;2023-01-28T03:28:51;3.00;;;2.70;;
15246;SDS011;7726;48.820;9.248;2023-01-28T03:31:39;4.67;;;3.40;;
15246;SDS011;7726;48.820;9.248;2023-01-28T03:34:24;2.73;;;2.53;;
15246;SDS011;7726;48.820;9.248;2023-01-28T03:37:09;3.10;;;2.80;;
15246;SDS011;7726;48.820;9.248;2023-01-28T03:39:38;4.67;;;3.40;;
15246;SDS011;7726;48.820;9.248;2023-01-28T03:42:06;4.17;;;3.53;;
15246;SDS011;7726;48.820;9.248;2023-01-28T03:44:34;3.57;;;2.97;;
15246;SDS011;7726;48.820;9.248;2023-01-28T03:47:18;4.40;;;3.63;;
15246;SDS011;7726;48.820;9.248;2023-01-28T03:49:47;5.30;;;3.97;;
15246;SDS011;7726;48.820;9.248;2023-01-28T03:52:15;4.30;;;3.43;;
15246;SDS011;7726;48.820;9.248;2023-01-28T03:54:43;4.73;;;3.63;;
15246;SDS011;7726;48.820;9.248;2023-01-28T03:57:11;5.33;;;4.50;;
15246;SDS011;7726;48.820;9.248;2023-01-28T03:59:39;4.20;;;3.80;;
15246;SDS011;7726;48.820;9.248;2023-01-28T04:02:06;5.37;;;4.70;;
15246;SDS011;7726;48.820;9.248;2023-01-28T04:04:36;6.20;;;4.70;;
15246;SDS011;7726;48.820;9.248;2023-01-28T04:07:03;6.27;;;5.53;;
15246;SDS011;7726;48.820;9.248;2023-01-28T04:09:32;7.00;;;6.00;;
15246;SDS011;7726;48.820;9.248;2023-01-28T04:11:59;8.40;;;6.10;;
15246;SDS011;7726;48.820;9.248;2023-01-28T04:14:26;7.13;;;6.03;;
15246;SDS011;7726;48.820;9.248;2023-01-28T04:16:53;7.03;;;5.77;;
15246;SDS011;7726;48.820;9.248;2023-01-28T04:19:21;7.53;;;6.03;;
15246;SDS011;7726;48.820;9.248;2023-01-28T04:21:50;9.10;;;6.03;;
15246;SDS011;7726;48.820;9.248;2023-01-28T04:24:17;5.83;;;4.70;;
15246;SDS011;7726;48.820;9.248;2023-01-28T04:26:45;7.07;;;5.20;;
15246;SDS011;7726;48.820;9.248;2023-01-28T04:29:12;5.67;;;4.67;;
15246;SDS011;7726;48.820;9.248;2023-01-28T04:31:39;5.47;;;4.67;;
15246;SDS011;7726;48.820;9.248;2023-01-28T04:34:06;10.87;;;4.60;;
15246;SDS011;7726;48.820;9.248;2023-01-28T04:36:34;5.70;;;4.07;;
15246;SDS011;7726;48.820;9.248;2023-01-28T04:39:02;8.00;;;4.50;;
15246;SDS011;7726;48.820;9.248;2023-01-28T04:41:29;7.30;;;5.03;;
15246;SDS011;7726;48.820;9.248;2023-01-28T04:43:56;4.47;;;3.43;;
15246;SDS011;7726;48.820;9.248;2023-01-28T04:46:24;4.37;;;3.60;;
15246;SDS011;7726;48.820;9.248;2023-01-28T04:48:51;7.73;;;5.30;;
15246;SDS011;7726;48.820;9.248;2023-01-28T04:51:18;6.10;;;4.13;;
15246;SDS011;7726;48.820;9.248;2023-01-28T04:53:45;4.83;;;3.77;;
15246;SDS011;7726;48.820;9.248;2023-01-28T04:56:13;6.53;;;5.00;;
15246;SDS011;7726;48.820;9.248;2023-01-28T04:58:40;6.47;;;5.20;;
15246;SDS011;7726;48.820;9.248;2023-01-28T05:01:07;5.90;;;4.80;;
15246;SDS011;7726;48.820;9.248;2023-01-28T05:03:34;5.10;;;3.43;;
15246;SDS011;7726;48.820;9.248;2023-01-28T05:06:02;7.97;;;6.00;;
15246;SDS011;7726;48.820;9.248;2023-01-28T05:08:29;8.07;;;5.33;;
15246;SDS011;7726;48.820;9.248;2023-01-28T05:10:56;6.47;;;4.73;;
15246;SDS011;7726;48.820;9.248;2023-01-28T05:13:25;4.93;;;4.20;;
15246;SDS011;7726;48.820;9.248;2023-01-28T05:15:52;7.13;;;5.73;;
15246;SDS011;7726;48.820;9.248;2023-01-28T05:18:19;5.83;;;4.40;;
15246;SDS011;7726;48.820;9.248;2023-01-28T05:20:46;7.60;;;5.47;;
15246;SDS011;7726;48.820;9.248;2023-01-28T05:23:13;7.63;;;5.90;;
15246;SDS011;7726;48.820;9.248;2023-01-28T05:25:40;8.03;;;6.00;;
15246;SDS011;7726;48.820;9.248;2023-01-28T05:28:08;7.47;;;5.63;;
15246;SDS011;7726;48.820;9.248;2023-01-28T05:30:37;9.20;;;6.23;;
15246;SDS011;7726;48.820;9.248;2023-01-28T05:33:04;8.23;;;6.27;;
15246;SDS011;7726;48.820;9.248;2023-01-28T05:35:31;8.17;;;6.80;;
15246;SDS011;7726;48.820;9.248;2023-01-28T05:38:00;8.73;;;6.63;;
15246;SDS011;7726;48.820;9.248;2023-01-28T05:40:27;8.13;;;6.33;;
15246;SDS011;7726;48.820;9.248;2023-01-28T05:42:54;8.87;;;6.77;;
15246;SDS011;7726;48.820;9.248;2023-01-28T05:45:21;8.23;;;6.73;;
15246;SDS011;7726;48.820;9.248;2023-01-28T05:47:50;7.63;;;6.17;;
15246;SDS011;7726;48.820;9.248;2023-01-28T05:50:17;8.93;;;6.37;;
15246;SDS011;7726;48.820;9.248;2023-01-28T05:52:44;7.80;;;5.90;;
15246;SDS011;7726;48.820;9.248;2023-01-28T05:55:11;7.67;;;6.47;;
15246;SDS011;7726;48.820;9.248;2023-01-28T05:57:38;8.27;;;6.83;;
15246;SDS011;7726;48.820;9.248;2023-01-28T06:00:06;9.87;;;6.97;;
15246;SDS011;7726;48.820;9.248;2023-01-28T06:02:33;6.83;;;6.13;;
15246;SDS011;7726;48.820;9.248;2023-01-28T06:05:02;8.73;;;6.13;;
15246;SDS011;7726;48.820;9.248;2023-01-28T06:07:29;8.77;;;6.80;;
15246;SDS011;7726;48.820;9.248;2023-01-28T06:09:56;6.93;;;6.03;;
15246;SDS011;7726;48.820;9.248;2023-01-28T06:12:23;6.80;;;5.70;;
15246;SDS011;7726;48.820;9.248;2023-01-28T06:14:50;7.03;;;5.37;;
15246;SDS011;7726;48.820;9.248;2023-01-28T06:17:17;8.20;;;6.07;;
15246;SDS011;7726;48.820;9.248;2023-01-28T06:19:44;8.47;;;6.77;;
15246;SDS011;7726;48.820;9.248;2023-01-28T06:22:13;6.67;;;5.80;;
15246;SDS011;7726;48.820;9.248;2023-01-28T06:24:40;8.37;;;6.40;;
15246;SDS011;7726;48.820;9.248;2023-01-28T06:27:07;6.70;;;5.33;;
15246;SDS011;7726;48.820;9.248;2023-01-28T06:29:34;7.00;;;5.07;;
15246;SDS011;7726;48.820;9.248;2023-01-28T06:32:01;6.50;;;5.20;;
15246;SDS011;7726;48.820;9.248;2023-01-28T06:34:28;6.20;;;5.17;;
15246;SDS011;7726;48.820;9.248;2023-01-28T06:36:55;6.73;;;5.37;;
15246;SDS011;7726;48.820;9.248;2023-01-28T06:39:24;6.67;;;5.07;;
15246;SDS011;7726;48.820;9.248;2023-01-28T06:41:52;9.50;;;5.83;;
15246;SDS011;7726;48.820;9.248;2023-01-28T06:44:20;6.57;;;5.77;;
15246;SDS011;7726;48.820;9.248;2023-01-28T06:46:47;7.20;;;5.70;;
15246;SDS011;7726;48.820;9.248;2023-01-28T06:49:14;7.00;;;5.60;;
15246;SDS011;7726;48.820;9.248;2023-01-28T06:51:41;7.27;;;5.43;;
15246;SDS011;7726;48.820;9.248;2023-01-28T06:54:08;7.47;;;5.90;;
15246;SDS011;7726;48.820;9.248;2023-01-28T06:56:38;7.37;;;5.63;;
15246;SDS011;7726;48.820;9.248;2023-01-28T06:59:05;7.97;;;5.70;;
15246;SDS011;7726;48.820;9.248;2023-01-28T07:01:32;6.97;;;5.10;;
15246;SDS011;7726;48.820;9.248;2023-01-28T07:03:59;7.77;;;5.70;;
15246;SDS011;7726;48.820;9.248;2023-01-28T07:06:27;7.33;;;5.97;;
15246;SDS011;7726;48.820;9.248;2023-01-28T07:08:54;8.03;;;6.27;;
15246;SDS011;7726;48.820;9.248;2023-01-28T07:11:21;7.20;;;5.87;;
15246;SDS011;7726;48.820;9.248;2023-01-28T07:13:49;7.77;;;6.13;;
15246;SDS011;7726;48.820;9.248;2023-01-28T07:16:16;6.67;;;5.57;;
15246;SDS011;7726;48.820;9.248;2023-01-28T07:18:43;8.10;;;5.83;;
15246;SDS011;7726;48.820;9.248;2023-01-28T07:21:11;8.00;;;6.00;;
15246;SDS011;7726;48.820;9.248;2023-01-28T07:23:38;8.57;;;6.43;;
15246;SDS011;7726;48.820;9.248;2023-01-28T07:26:05;9.50;;;6.50;;
15246;SDS011;7726;48.820;9.248;2023-01-28T07:28:32;8.00;;;6.60;;
15246;SDS011;7726;48.820;9.248;2023-01-28T07:31:01;8.67;;;5.87;;
15246;SDS011;7726;48.820;9.248;2023-01-28T07:33:28;9.07;;;6.37;;
15246;SDS011;7726;48.820;9.248;2023-01-28T07:35:55;10.10;;;6.93;;
15246;SDS011;7726;48.820;9.248;2023-01-28T07:38:22;9.33;;;7.47;;
15246;SDS011;7726;48.820;9.248;2023-01-28T07:40:49;8.53;;;6.53;;
15246;SDS011;7726;48.820;9.248;2023-01-28T07:43:16;9.47;;;6.10;;
15246;SDS011;7726;48.820;9.248;2023-01-28T07:45:43;7.40;;;5.90;;
15246;SDS011;7726;48.820;9.248;2023-01-28T07:48:12;6.70;;;5.50;;
15246;SDS011;7726;48.820;9.248;2023-01-28T07:50:40;7.93;;;5.80;;
15246;SDS011;7726;48.820;9.248;2023-01-28T07:53:07;7.80;;;5.50;;
15246;SDS011;7726;48.820;9.248;2023-01-28T07:55:35;7.03;;;5.87;;
15246;SDS011;7726;48.820;9.248;2023-01-28T07:58:03;6.50;;;5.43;;
15246;SDS011;7726;48.820;9.248;2023-01-28T08:00:31;8.97;;;6.17;;
15246;SDS011;7726;48.820;9.248;2023-01-28T08:02:59;7.53;;;5.73;;
15246;SDS011;7726;48.820;9.248;2023-01-28T08:05:31;7.00;;;5.53;;
15246;SDS011;7726;48.820;9.248;2023-01-28T08:07:59;8.13;;;5.60;;
15246;SDS011;7726;48.820;9.248;2023-01-28T08:10:26;7.50;;;5.67;;
15246;SDS011;7726;48.820;9.248;2023-01-28T08:12:54;6.43;;;5.20;;
15246;SDS011;7726;48.820;9.248;2023-01-28T08:15:22;5.20;;;4.40;;
15246;SDS011;7726;48.820;9.248;2023-01-28T08:17:50;6.70;;;5.93;;
15246;SDS011;7726;48.820;9.248;2023-01-28T08:20:19;7.00;;;5.60;;
15246;SDS011;7726;48.820;9.248;2023-01-28T08:22:47;8.33;;;5.97;;
15246;SDS011;7726;48.820;9.248;2023-01-28T08:25:14;6.83;;;5.40;;
15246;SDS011;7726;48.820;9.248;2023-01-28T08:27:42;7.90;;;5.87;;
15246;SDS011;7726;48.820;9.248;2023-01-28T08:30:10;7.70;;;5.73;;
15246;SDS011;7726;48.820;9.248;2023-01-28T08:32:37;7.13;;;5.70;;
15246;SDS011;7726;48.820;9.248;2023-01-28T08:35:05;9.07;;;6.87;;
15246;SDS011;7726;48.820;9.248;2023-01-28T08:37:32;8.47;;;5.80;;
15246;SDS011;7726;48.820;9.248;2023-01-28T08:40:01;8.50;;;5.60;;
15246;SDS011;7726;48.820;9.248;2023-01-28T08:42:28;7.43;;;6.10;;
15246;SDS011;7726;48.820;9.248;2023-01-28T08:44:55;8.43;;;6.43;;
15246;SDS011;7726;48.820;9.248;2023-01-28T08:47:22;8.10;;;5.93;;
15246;SDS011;7726;48.820;9.248;2023-01-28T08:49:49;9.40;;;7.00;;
15246;SDS011;7726;48.820;9.248;2023-01-28T08:52:16;8.50;;;6.23;;
15246;SDS011;7726;48.820;9.248;2023-01-28T08:54:43;9.20;;;6.53;;
15246;SDS011;7726;48.820;9.248;2023-01-28T08:57:12;7.60;;;6.13;;
15246;SDS011;7726;48.820;9.248;2023-01-28T08:59:39;9.07;;;7.00;;
15246;SDS011;7726;48.820;9.248;2023-01-28T09:02:11;9.07;;;6.70;;
15246;SDS011;7726;48.820;9.248;2023-01-28T09:04:39;8.53;;;6.30;;
15246;SDS011;7726;48.820;9.248;2023-01-28T09:07:07;7.33;;;6.17;;
15246;SDS011;7726;48.820;9.248;2023-01-28T09:09:34;8.67;;;6.57;;
15246;SDS011;7726;48.820;9.248;2023-01-28T09:12:01;9.60;;;7.57;;
15246;SDS011;7726;48.820;9.248;2023-01-28T09:14:31;10.63;;;7.90;;
15246;SDS011;7726;48.820;9.248;2023-01-28T09:16:58;10.07;;;7.90;;
15246;SDS011;7726;48.820;9.248;2023-01-28T09:19:25;9.83;;;7.47;;
15246;SDS011;7726;48.820;9.248;2023-01-28T09:21:53;5.93;;;4.63;;
15246;SDS011;7726;48.820;9.248;2023-01-28T09:24:20;12.53;;;7.30;;
15246;SDS011;7726;48.820;9.248;2023-01-28T09:26:47;8.33;;;6.27;;
15246;SDS011;7726;48.820;9.248;2023-01-28T09:29:14;8.50;;;6.83;;
15246;SDS011;7726;48.820;9.248;2023-01-28T09:31:43;11.70;;;8.30;;
15246;SDS011;7726;48.820;9.248;2023-01-28T09:34:10;10.43;;;7.77;;
15246;SDS011;7726;48.820;9.248;2023-01-28T09:36:37;8.93;;;6.90;;
15246;SDS011;7726;48.820;9.248;2023-01-28T09:39:05;10.67;;;8.37;;
15246;SDS011;7726;48.820;9.248;2023-01-28T09:41:33;8.80;;;6.70;;
15246;SDS011;7726;48.820;9.248;2023-01-28T09:44:18;11.43;;;8.10;;
15246;SDS011;7726;48.820;9.248;2023-01-28T09:46:48;10.50;;;7.73;;
15246;SDS011;7726;48.820;9.248;2023-01-28T09:49:17;9.00;;;6.23;;
15246;SDS011;7726;48.820;9.248;2023-01-28T09:51:46;9.73;;;6.97;;
15246;SDS011;7726;48.820;9.248;2023-01-28T09:54:18;11.57;;;8.30;;
15246;SDS011;7726;48.820;9.248;2023-01-28T09:56:50;10.23;;;7.27;;
15246;SDS011;7726;48.820;9.248;2023-01-28T09:59:20;10.43;;;5.50;;
15246;SDS011;7726;48.820;9.248;2023-01-28T10:01:52;11.73;;;7.47;;
15246;SDS011;7726;48.820;9.248;2023-01-28T10:04:21;13.23;;;8.03;;
15246;SDS011;7726;48.820;9.248;2023-01-28T10:06:53;10.27;;;6.53;;
15246;SDS011;7726;48.820;9.248;2023-01-28T10:11:59;10.57;;;6.43;;
15246;SDS011;7726;48.820;9.248;2023-01-28T10:14:32;8.33;;;6.00;;
15246;SDS011;7726;48.820;9.248;2023-01-28T10:17:05;8.20;;;5.80;;
15246;SDS011;7726;48.820;9.248;2023-01-28T10:19:34;7.93;;;6.03;;
15246;SDS011;7726;48.820;9.248;2023-01-28T10:22:02;10.93;;;8.33;;
15246;SDS011;7726;48.820;9.248;2023-01-28T10:24:32;12.17;;;8.33;;
15246;SDS011;7726;48.820;9.248;2023-01-28T10:27:00;11.87;;;8.60;;
15246;SDS011;7726;48.820;9.248;2023-01-28T10:29:28;9.50;;;7.43;;
15246;SDS011;7726;48.820;9.248;2023-01-28T10:31:58;10.90;;;7.97;;
15246;SDS011;7726;48.820;9.248;2023-01-28T10:34:27;10.43;;;7.03;;
15246;SDS011;7726;48.820;9.248;2023-01-28T10:36:54;11.87;;;8.27;;
15246;SDS011;7726;48.820;9.248;2023-01-28T10:39:23;12.03;;;8.40;;
15246;SDS011;7726;48.820;9.248;2023-01-28T10:41:51;10.67;;;6.83;;
15246;SDS011;7726;48.820;9.248;2023-01-28T10:44:20;13.80;;;8.40;;
15246;SDS011;7726;48.820;9.248;2023-01-28T10:46:51;11.50;;;9.03;;
15246;SDS011;7726;48.820;9.248;2023-01-28T10:49:20;10.80;;;7.13;;
15246;SDS011;7726;48.820;9.248;2023-01-28T10:51:51;13.90;;;7.97;;
15246;SDS011;7726;48.820;9.248;2023-01-28T10:54:19;10.87;;;8.50;;
15246;SDS011;7726;48.820;9.248;2023-01-28T10:56:46;11.50;;;8.13;;
15246;SDS011;7726;48.820;9.248;2023-01-28T10:59:19;13.47;;;9.03;;
15246;SDS011;7726;48.820;9.248;2023-01-28T11:01:48;12.30;;;9.20;;
15246;SDS011;7726;48.820;9.248;2023-01-28T11:04:16;12.33;;;8.43;;
15246;SDS011;7726;48.820;9.248;2023-01-28T11:06:52;11.53;;;9.10;;
15246;SDS011;7726;48.820;9.248;2023-01-28T11:09:20;12.93;;;9.07;;
15246;SDS011;7726;48.820;9.248;2023-01-28T11:11:47;11.10;;;8.10;;
15246;SDS011;7726;48.820;9.248;2023-01-28T11:14:18;12.20;;;8.00;;
15246;SDS011;7726;48.820;9.248;2023-01-28T11:16:45;15.63;;;8.90;;
15246;SDS011;7726;48.820;9.248;2023-01-28T11:19:13;7.70;;;5.43;;
15246;SDS011;7726;48.820;9.248;2023-01-28T11:21:41;8.17;;;6.23;;
15246;SDS011;7726;48.820;9.248;2023-01-28T11:24:16;7.73;;;5.30;;
15246;SDS011;7726;48.820;9.248;2023-01-28T11:26:46;11.33;;;7.43;;
15246;SDS011;7726;48.820;9.248;2023-01-28T11:29:20;11.47;;;8.33;;
15246;SDS011;7726;48.820;9.248;2023-01-28T11:31:48;13.37;;;8.40;;
15246;SDS011;7726;48.820;9.248;2023-01-28T11:34:16;9.07;;;6.00;;
15246;SDS011;7726;48.820;9.248;2023-01-28T11:36:48;11.70;;;7.67;;
15246;SDS011;7726;48.820;9.248;2023-01-28T11:39:18;7.60;;;5.77;;
15246;SDS011;7726;48.820;9.248;2023-01-28T11:41:46;10.67;;;7.97;;
15246;SDS011;7726;48.820;9.248;2023-01-28T11:44:14;12.53;;;8.90;;
15246;SDS011;7726;48.820;9.248;2023-01-28T11:46:52;10.27;;;6.93;;
15246;SDS011;7726;48.820;9.248;2023-01-28T11:49:24;12.00;;;6.90;;
15246;SDS011;7726;48.820;9.248;2023-01-28T11:51:57;13.43;;;8.43;;
15246;SDS011;7726;48.820;9.248;2023-01-28T11:54:30;10.43;;;7.90;;
15246;SDS011;7726;48.820;9.248;2023-01-28T11:57:02;11.00;;;7.30;;
15246;SDS011;7726;48.820;9.248;2023-01-28T11:59:41;12.57;;;7.77;;
15246;SDS011;7726;48.820;9.248;2023-01-28T12:02:16;11.07;;;7.77;;
15246;SDS011;7726;48.820;9.248;2023-01-28T12:04:52;11.33;;;8.20;;
15246;SDS011;7726;48.820;9.248;2023-01-28T12:07:29;12.00;;;7.63;;
15246;SDS011;7726;48.820;9.248;2023-01-28T12:10:01;9.00;;;6.07;;
15246;SDS011;7726;48.820;9.248;2023-01-28T12:12:37;11.83;;;8.07;;
15246;SDS011;7726;48.820;9.248;2023-01-28T12:15:16;8.10;;;6.07;;
15246;SDS011;7726;48.820;9.248;2023-01-28T12:17:48;10.20;;;6.97;;
15246;SDS011;7726;48.820;9.248;2023-01-28T12:20:21;12.77;;;8.70;;
15246;SDS011;7726;48.820;9.248;2023-01-28T12:22:57;6.77;;;5.20;;
15246;SDS011;7726;48.820;9.248;2023-01-28T12:25:31;11.23;;;7.37;;
15246;SDS011;7726;48.820;9.248;2023-01-28T12:28:02;7.50;;;5.20;;
15246;SDS011;7726;48.820;9.248;2023-01-28T12:30:37;9.77;;;7.37;;
15246;SDS011;7726;48.820;9.248;2023-01-28T12:33:17;11.07;;;7.93;;
15246;SDS011;7726;48.820;9.248;2023-01-28T12:35:50;8.27;;;4.93;;
15246;SDS011;7726;48.820;9.248;2023-01-28T12:38:22;10.77;;;6.23;;
15246;SDS011;7726;48.820;9.248;2023-01-28T12:41:03;6.10;;;4.57;;
15246;SDS011;7726;48.820;9.248;2023-01-28T12:43:37;9.23;;;4.27;;
15246;SDS011;7726;48.820;9.248;2023-01-28T12:46:08;7.50;;;4.57;;
15246;SDS011;7726;48.820;9.248;2023-01-28T12:48:38;9.00;;;5.50;;
15246;SDS011;7726;48.820;9.248;2023-01-28T12:51:07;8.47;;;5.67;;
15246;SDS011;7726;48.820;9.248;2023-01-28T12:53:38;9.60;;;6.10;;
15246;SDS011;7726;48.820;9.248;2023-01-28T12:56:08;7.53;;;5.70;;
15246;SDS011;7726;48.820;9.248;2023-01-28T12:58:41;7.53;;;4.93;;
15246;SDS011;7726;48.820;9.248;2023-01-28T13:01:10;8.03;;;4.97;;
15246;SDS011;7726;48.820;9.248;2023-01-28T13:03:39;6.10;;;4.73;;
15246;SDS011;7726;48.820;9.248;2023-01-28T13:06:08;5.70;;;4.40;;
15246;SDS011;7726;48.820;9.248;2023-01-28T13:08:39;3.80;;;2.20;;
15246;SDS011;7726;48.820;9.248;2023-01-28T13:11:10;3.97;;;3.00;;
15246;SDS011;7726;48.820;9.248;2023-01-28T13:13:39;4.27;;;3.33;;
15246;SDS011;7726;48.820;9.248;2023-01-28T13:16:07;4.73;;;3.40;;
15246;SDS011;7726;48.820;9.248;2023-01-28T13:18:41;3.70;;;2.93;;
15246;SDS011;7726;48.820;9.248;2023-01-28T13:21:11;4.20;;;3.27;;
15246;SDS011;7726;48.820;9.248;2023-01-28T13:23:40;5.67;;;3.90;;
15246;SDS011;7726;48.820;9.248;2023-01-28T13:26:10;5.30;;;4.07;;
15246;SDS011;7726;48.820;9.248;2023-01-28T13:28:37;4.20;;;3.50;;
15246;SDS011;7726;48.820;9.248;2023-01-28T13:31:05;7.03;;;4.73;;
15246;SDS011;7726;48.820;9.248;2023-01-28T13:33:34;5.63;;;4.00;;
15246;SDS011;7726;48.820;9.248;2023-01-28T13:36:02;3.60;;;2.63;;
15246;SDS011;7726;48.820;9.248;2023-01-28T13:38:32;5.80;;;3.53;;
15246;SDS011;7726;48.820;9.248;2023-01-28T13:40:59;6.80;;;5.17;;
15246;SDS011;7726;48.820;9.248;2023-01-28T13:43:40;5.43;;;3.13;;
15246;SDS011;7726;48.820;9.248;2023-01-28T13:46:09;9.50;;;5.57;;
15246;SDS011;7726;48.820;9.248;2023-01-28T13:48:38;6.07;;;4.43;;
15246;SDS011;7726;48.820;9.248;2023-01-28T13:51:09;6.47;;;3.93;;
15246;SDS011;7726;48.820;9.248;2023-01-28T13:53:39;6.87;;;3.90;;
15246;SDS011;7726;48.820;9.248;2023-01-28T13:56:09;5.77;;;4.13;;
15246;SDS011;7726;48.820;9.248;2023-01-28T14:01:40;6.60;;;4.57;;
15246;SDS011;7726;48.820;9.248;2023-01-28T14:04:27;5.33;;;4.00;;
15246;SDS011;7726;48.820;9.248;2023-01-28T14:07:02;7.07;;;5.00;;
15246;SDS011;7726;48.820;9.248;2023-01-28T14:15:07;6.03;;;4.80;;
15246;SDS011;7726;48.820;9.248;2023-01-28T14:17:40;7.00;;;5.00;;
15246;SDS011;7726;48.820;9.248;2023-01-28T14:20:12;5.50;;;4.00;;
15246;SDS011;7726;48.820;9.248;2023-01-28T14:22:40;4.97;;;4.13;;
15246;SDS011;7726;48.820;9.248;2023-01-28T14:25:10;5.50;;;3.80;;
15246;SDS011;7726;48.820;9.248;2023-01-28T14:27:38;7.90;;;5.67;;
15246;SDS011;7726;48.820;9.248;2023-01-28T14:30:12;6.93;;;4.43;;
15246;SDS011;7726;48.820;9.248;2023-01-28T14:32:45;7.87;;;5.30;;
15246;SDS011;7726;48.820;9.248;2023-01-28T14:35:14;8.00;;;4.83;;
15246;SDS011;7726;48.820;9.248;2023-01-28T14:37:42;5.93;;;3.83;;
15246;SDS011;7726;48.820;9.248;2023-01-28T14:40:11;4.13;;;3.77;;
15246;SDS011;7726;48.820;9.248;2023-01-28T14:42:41;5.33;;;3.53;;
15246;SDS011;7726;48.820;9.248;2023-01-28T14:45:13;5.60;;;4.00;;
15246;SDS011;7726;48.820;9.248;2023-01-28T14:47:45;5.30;;;3.90;;
15246;SDS011;7726;48.820;9.248;2023-01-28T14:50:18;5.90;;;4.70;;
15246;SDS011;7726;48.820;9.248;2023-01-28T14:52:50;3.73;;;3.37;;
15246;SDS011;7726;48.820;9.248;2023-01-28T14:55:25;6.10;;;5.07;;
15246;SDS011;7726;48.820;9.248;2023-01-28T14:57:56;5.13;;;3.87;;
15246;SDS011;7726;48.820;9.248;2023-01-28T15:00:25;5.07;;;4.33;;
15246;SDS011;7726;48.820;9.248;2023-01-28T15:02:54;4.13;;;3.53;;
15246;SDS011;7726;48.820;9.248;2023-01-28T15:05:21;7.57;;;4.80;;
15246;SDS011;7726;48.820;9.248;2023-01-28T15:07:49;8.60;;;4.93;;
15246;SDS011;7726;48.820;9.248;2023-01-28T15:10:17;5.43;;;2.93;;
15246;SDS011;7726;48.820;9.248;2023-01-28T15:12:47;4.30;;;3.07;;
15246;SDS011;7726;48.820;9.248;2023-01-28T15:15:17;5.53;;;3.87;;
15246;SDS011;7726;48.820;9.248;2023-01-28T15:17:45;5.30;;;4.50;;
15246;SDS011;7726;48.820;9.248;2023-01-28T15:20:17;4.93;;;4.10;;
15246;SDS011;7726;48.820;9.248;2023-01-28T15:22:44;4.53;;;3.87;;
15246;SDS011;7726;48.820;9.248;2023-01-28T15:25:16;4.43;;;3.47;;